Time;durP1;ratioP1;P1;durP2;ratioP2;P2;SDS_P1;SDS_P2;PMS_P1;PMS_P2;Temp;Humidity;BMP_temperature;BMP_pressure;BME280_temperature;BME280_humidity;BME280_pressure;Samples;Min_cycle;Max_cycle;Signal;HPM_P1;HPM_P2
2022/08/26 00:00:29;;;;;;;273.77;255.27;;;15.00;91.40;;;;;;4197916;28;20191;-70
2022/08/26 00:02:30;;;;;;;329.53;298.93;;;15.00;91.40;;;;;;4198419;28;20632;-71
2022/08/26 00:04:31;;;;;;;654.37;501.43;;;15.10;91.40;;;;;;4197571;28;20195;-71
2022/08/26 00:06:32;;;;;;;525.23;489.27;;;15.10;91.30;;;;;;4198425;28;20198;-71
2022/08/26 00:08:33;;;;;;;320.70;290.30;;;15.10;91.60;;;;;;4197961;28;20187;-71
2022/08/26 00:10:33;;;;;;;232.23;218.37;;;15.00;91.80;;;;;;4179987;28;20247;-70
2022/08/26 00:12:34;;;;;;;287.67;264.53;;;15.00;92.00;;;;;;4197658;28;20218;-70
2022/08/26 00:14:35;;;;;;;299.93;279.10;;;14.90;92.50;;;;;;4179598;28;20758;-71
2022/08/26 00:16:35;;;;;;;511.60;287.67;;;14.90;92.60;;;;;;4197663;28;20222;-72
2022/08/26 00:18:37;;;;;;;317.43;295.37;;;14.90;92.80;;;;;;4197643;28;20216;-71
2022/08/26 00:20:38;;;;;;;131.93;124.60;;;14.90;92.80;;;;;;4197573;28;20202;-71
2022/08/26 00:22:39;;;;;;;825.17;682.07;;;14.90;92.80;;;;;;4197642;28;20187;-71
2022/08/26 00:24:40;;;;;;;371.70;326.00;;;14.80;93.00;;;;;;4179315;28;20299;-71
2022/08/26 00:26:40;;;;;;;803.17;563.07;;;14.80;93.10;;;;;;4197761;28;20223;-71
2022/08/26 00:28:41;;;;;;;454.83;408.50;;;14.80;93.30;;;;;;4179802;28;20188;-72
2022/08/26 00:30:42;;;;;;;242.90;225.23;;;14.80;93.50;;;;;;4197682;28;20190;-71
2022/08/26 00:32:43;;;;;;;155.80;146.67;;;14.80;93.20;;;;;;4197656;28;20215;-71
2022/08/26 00:34:43;;;;;;;262.80;246.30;;;14.80;93.10;;;;;;4179427;28;20207;-71
2022/08/26 00:36:44;;;;;;;336.20;310.07;;;14.70;93.50;;;;;;4197310;28;20183;-71
2022/08/26 00:38:45;;;;;;;609.00;555.70;;;14.70;93.50;;;;;;4197236;28;20182;-71
2022/08/26 00:40:49;;;;;;;621.13;515.93;;;14.70;93.90;;;;;;4197391;28;20184;-70
2022/08/26 00:42:50;;;;;;;906.50;653.70;;;14.70;94.10;;;;;;4178952;28;20199;-71
2022/08/26 00:44:51;;;;;;;793.30;438.73;;;14.70;94.30;;;;;;4197557;28;20732;-70
2022/08/26 00:46:57;;;;;;;511.43;473.23;;;14.70;94.30;;;;;;4197413;28;20190;-71
2022/08/26 00:49:05;;;;;;;393.67;361.30;;;14.70;94.20;;;;;;4179535;28;20265;-71
2022/08/26 00:51:18;;;;;;;188.57;176.87;;;14.70;94.10;;;;;;4179582;28;20191;-71
2022/08/26 00:53:20;;;;;;;131.23;124.00;;;14.70;94.10;;;;;;4196654;28;20302;-70
2022/08/26 00:55:32;;;;;;;407.77;374.10;;;14.80;94.50;;;;;;4197330;28;20203;-70
2022/08/26 00:57:34;;;;;;;264.70;248.40;;;14.70;95.10;;;;;;4196762;28;20632;-70
2022/08/26 00:59:35;;;;;;;547.80;349.47;;;14.80;95.60;;;;;;4197201;28;20184;-70
2022/08/26 01:01:38;;;;;;;523.97;447.73;;;14.80;95.30;;;;;;4179140;28;20190;-70
2022/08/26 01:03:39;;;;;;;670.20;479.33;;;14.80;95.00;;;;;;4196449;28;20188;-70
2022/08/26 01:05:40;;;;;;;472.23;426.63;;;14.70;95.40;;;;;;4197106;28;20214;-70
2022/08/26 01:07:41;;;;;;;984.73;693.60;;;14.80;95.80;;;;;;4197031;28;20268;-71
2022/08/26 01:09:42;;;;;;;888.20;343.43;;;14.70;95.80;;;;;;4196575;28;20195;-71
2022/08/26 01:11:43;;;;;;;378.67;354.63;;;14.70;95.80;;;;;;4197095;28;20210;-71
2022/08/26 01:13:44;;;;;;;519.40;473.13;;;14.70;95.50;;;;;;4196182;28;20573;-71
2022/08/26 01:15:51;;;;;;;341.20;316.70;;;14.60;95.50;;;;;;4196827;28;20196;-71
2022/08/26 01:17:52;;;;;;;178.03;168.03;;;14.60;95.40;;;;;;4197355;28;20187;-71
2022/08/26 01:20:01;;;;;;;687.33;623.77;;;14.60;95.60;;;;;;4195756;28;20225;-71
2022/08/26 01:22:12;;;;;;;406.17;265.17;;;14.60;96.10;;;;;;4179059;28;20183;-71
2022/08/26 01:24:13;;;;;;;328.67;299.93;;;14.60;96.00;;;;;;4196168;28;20210;-71
2022/08/26 01:26:40;;;;;;;161.60;152.47;;;14.60;96.40;;;;;;4196765;28;20629;-71
2022/08/26 01:28:41;;;;;;;920.27;424.77;;;14.70;96.20;;;;;;4196658;28;20718;-71
2022/08/26 01:30:44;;;;;;;552.27;327.83;;;14.80;96.60;;;;;;4196581;28;20188;-71
2022/08/26 01:32:45;;;;;;;898.40;382.10;;;14.80;96.60;;;;;;4178578;28;20209;-70
2022/08/26 01:34:47;;;;;;;816.70;305.67;;;14.80;96.40;;;;;;4178754;28;20738;-70
2022/08/26 01:36:49;;;;;;;498.63;446.33;;;14.80;96.10;;;;;;4196533;28;20199;-71
2022/08/26 01:38:50;;;;;;;394.53;285.33;;;14.80;96.10;;;;;;4196218;28;20596;-70
2022/08/26 01:40:51;;;;;;;459.87;344.87;;;14.80;96.00;;;;;;4196271;28;20252;-69
2022/08/26 01:42:53;;;;;;;531.37;483.70;;;14.80;96.00;;;;;;4195552;28;20214;-70
2022/08/26 01:45:07;;;;;;;937.50;538.97;;;14.80;95.80;;;;;;4196114;28;20223;-71
2022/08/26 01:47:08;;;;;;;477.53;389.33;;;14.80;96.00;;;;;;4178112;28;20676;-71
2022/08/26 01:49:10;;;;;;;530.37;309.23;;;14.80;96.00;;;;;;4196049;28;20217;-71
2022/08/26 01:51:12;;;;;;;274.73;257.87;;;14.70;95.90;;;;;;4196201;28;20678;-71
2022/08/26 01:53:17;;;;;;;423.00;386.60;;;14.70;95.70;;;;;;4195378;28;20203;-71
2022/08/26 01:55:20;;;;;;;314.67;291.00;;;14.60;96.00;;;;;;4178761;28;20212;-71
2022/08/26 01:57:21;;;;;;;617.73;563.40;;;14.60;96.20;;;;;;4196177;28;20188;-72
2022/08/26 01:59:23;;;;;;;484.00;445.77;;;14.60;96.40;;;;;;4178415;28;20192;-71
2022/08/26 02:01:25;;;;;;;432.83;392.37;;;14.60;96.70;;;;;;4195876;28;20671;-71
2022/08/26 02:03:27;;;;;;;662.30;548.20;;;14.60;96.80;;;;;;4195530;28;20184;-72
2022/08/26 02:05:27;;;;;;;363.17;336.97;;;14.50;96.80;;;;;;4195984;28;20567;-70
2022/08/26 02:07:29;;;;;;;488.90;438.63;;;14.50;96.70;;;;;;4196204;28;20241;-71
2022/08/26 02:09:29;;;;;;;503.23;368.73;;;14.50;96.70;;;;;;4195370;28;20222;-70
2022/08/26 02:11:30;;;;;;;445.57;254.53;;;14.50;97.10;;;;;;4195845;28;20187;-70
2022/08/26 02:13:33;;;;;;;382.13;297.87;;;14.50;97.20;;;;;;4195273;28;20672;-70
2022/08/26 02:15:34;;;;;;;392.73;308.77;;;14.60;97.10;;;;;;4195860;28;20207;-70
2022/08/26 02:17:42;;;;;;;478.73;436.00;;;14.60;97.20;;;;;;4195906;28;20188;-70
2022/08/26 02:19:46;;;;;;;275.07;254.67;;;14.60;97.00;;;;;;4178102;28;20211;-71
2022/08/26 02:21:49;;;;;;;659.93;292.20;;;14.60;97.20;;;;;;4177951;28;20234;-70
2022/08/26 02:23:50;;;;;;;332.40;303.93;;;14.50;97.20;;;;;;4177165;28;20194;-70
2022/08/26 02:26:10;;;;;;;301.50;281.00;;;14.50;97.70;;;;;;4195714;28;20314;-71
2022/08/26 02:28:11;;;;;;;463.10;359.07;;;14.50;97.80;;;;;;4195777;28;20187;-71
2022/08/26 02:30:18;;;;;;;278.50;263.03;;;14.50;97.90;;;;;;4195801;28;20187;-70
2022/08/26 02:32:18;;;;;;;268.13;249.30;;;14.70;97.80;;;;;;4195710;28;20583;-71
2022/08/26 02:34:24;;;;;;;430.77;392.57;;;14.60;97.30;;;;;;4177164;28;20215;-70
2022/08/26 02:36:25;;;;;;;905.07;471.80;;;14.60;97.70;;;;;;4195876;28;20206;-70
2022/08/26 02:38:26;;;;;;;260.67;245.43;;;14.60;97.40;;;;;;4192698;28;20192;-70
2022/08/26 02:40:30;;;;;;;523.33;376.80;;;14.50;97.40;;;;;;4192566;28;20183;-70
2022/08/26 02:42:31;;;;;;;445.67;420.70;;;14.40;97.70;;;;;;4195258;28;20196;-70
2022/08/26 02:44:32;;;;;;;456.53;411.50;;;14.40;97.90;;;;;;4195177;28;20207;-70
2022/08/26 02:46:32;;;;;;;473.70;435.50;;;14.60;99.20;;;;;;4196088;28;20188;-70
2022/08/26 02:48:33;;;;;;;480.30;442.67;;;14.60;98.30;;;;;;4177888;28;20237;-70
2022/08/26 02:50:34;;;;;;;410.60;384.67;;;14.50;98.30;;;;;;4195586;28;20179;-70
2022/08/26 02:52:35;;;;;;;398.13;372.83;;;14.50;98.60;;;;;;4195562;28;20211;-71
2022/08/26 02:54:36;;;;;;;604.43;424.10;;;14.60;98.60;;;;;;4193517;28;20223;-70
2022/08/26 02:56:36;;;;;;;618.47;449.20;;;14.50;98.70;;;;;;4195397;28;20217;-70
2022/08/26 02:58:37;;;;;;;345.47;323.77;;;14.50;98.70;;;;;;4195548;28;20211;-70
2022/08/26 03:00:38;;;;;;;477.40;436.13;;;14.60;98.50;;;;;;4195607;28;20526;-71
2022/08/26 03:02:39;;;;;;;507.40;459.17;;;14.60;98.60;;;;;;4195471;28;20214;-70
2022/08/26 03:04:40;;;;;;;474.87;404.13;;;14.50;98.50;;;;;;4194804;28;20286;-70
2022/08/26 03:06:41;;;;;;;782.53;593.50;;;14.40;98.80;;;;;;4195472;28;20559;-70
2022/08/26 03:08:41;;;;;;;391.50;353.30;;;14.40;98.90;;;;;;4195515;28;20622;-70
2022/08/26 03:10:42;;;;;;;422.30;386.10;;;14.40;99.00;;;;;;4195487;28;20223;-70
2022/08/26 03:12:46;;;;;;;500.80;451.97;;;14.40;99.50;;;;;;4195288;28;20214;-70
2022/08/26 03:14:47;;;;;;;464.47;392.97;;;14.40;99.40;;;;;;4195684;28;20676;-71
2022/08/26 03:16:50;;;;;;;676.43;540.17;;;14.40;99.20;;;;;;4195171;28;20209;-71
2022/08/26 03:18:51;;;;;;;598.33;356.70;;;14.40;99.10;;;;;;4196021;28;20705;-71
2022/08/26 03:20:52;;;;;;;944.57;458.00;;;14.40;99.60;;;;;;4197391;28;20184;-71
2022/08/26 03:22:54;;;;;;;361.13;328.70;;;14.40;99.60;;;;;;4180021;28;20194;-69
2022/08/26 03:24:54;;;;;;;437.10;391.60;;;14.40;99.40;;;;;;4198426;28;20203;-70
2022/08/26 03:26:55;;;;;;;973.53;351.53;;;14.40;99.40;;;;;;4198450;28;20190;-70
2022/08/26 03:31:32;;;;;;;438.40;396.10;;;14.60;98.30;;;;;;4147181;28;20379;-70
2022/08/26 03:33:32;;;;;;;522.20;471.77;;;14.50;98.50;;;;;;4173738;28;20239;-70
2022/08/26 03:35:33;;;;;;;244.33;227.53;;;14.40;98.70;;;;;;4198360;28;20683;-70
2022/08/26 03:37:34;;;;;;;422.63;393.73;;;14.40;98.60;;;;;;4198327;28;20188;-70
2022/08/26 03:39:35;;;;;;;693.97;464.60;;;14.30;98.70;;;;;;4198269;28;20180;-71
2022/08/26 03:41:35;;;;;;;453.70;407.83;;;14.20;98.90;;;;;;4198398;28;20671;-70
2022/08/26 03:43:37;;;;;;;208.33;193.63;;;14.20;99.00;;;;;;4179632;28;20699;-71
2022/08/26 03:45:39;;;;;;;310.20;282.20;;;14.30;99.20;;;;;;4198203;28;20749;-70
2022/08/26 03:47:40;;;;;;;607.27;416.70;;;14.30;98.90;;;;;;4198591;28;20569;-70
2022/08/26 03:49:41;;;;;;;528.47;471.73;;;14.20;99.10;;;;;;4198274;28;20183;-70
2022/08/26 03:51:42;;;;;;;278.57;261.43;;;14.30;99.10;;;;;;4198625;28;20205;-70
2022/08/26 03:53:43;;;;;;;573.77;403.77;;;14.20;99.10;;;;;;4197505;28;20211;-70
2022/08/26 03:55:44;;;;;;;249.13;230.27;;;14.20;99.30;;;;;;4198014;28;20687;-70
2022/08/26 03:57:45;;;;;;;603.40;409.27;;;14.10;99.70;;;;;;4198436;28;20184;-70
2022/08/26 03:59:45;;;;;;;272.63;248.67;;;14.30;99.70;;;;;;4198360;28;20553;-70
2022/08/26 04:01:46;;;;;;;304.33;261.13;;;14.20;99.20;;;;;;4180963;28;20271;-70
2022/08/26 04:03:58;;;;;;;285.83;199.13;;;14.30;99.10;;;;;;4197536;28;20191;-70
2022/08/26 04:05:59;;;;;;;416.53;388.80;;;14.20;99.20;;;;;;4180981;28;20283;-70
2022/08/26 04:07:59;;;;;;;465.40;361.57;;;14.20;98.90;;;;;;4180802;28;20184;-70
2022/08/26 04:10:00;;;;;;;910.27;461.93;;;14.10;98.70;;;;;;4199981;28;20215;-70
2022/08/26 04:12:02;;;;;;;269.93;253.57;;;14.00;99.10;;;;;;4183612;28;20669;-70
2022/08/26 04:14:06;;;;;;;417.97;309.17;;;13.90;99.60;;;;;;4197682;28;20207;-69
2022/08/26 04:16:07;;;;;;;1068.07;400.57;;;14.00;99.80;;;;;;4198675;28;20187;-70
2022/08/26 04:18:07;;;;;;;182.83;160.53;;;14.00;99.90;;;;;;4198764;28;20176;-71
2022/08/26 04:20:09;;;;;;;152.30;144.27;;;14.10;99.90;;;;;;4198242;28;20175;-70
2022/08/26 04:22:10;;;;;;;131.97;123.60;;;14.10;99.90;;;;;;4198465;28;20207;-71
2022/08/26 04:24:12;;;;;;;735.70;409.97;;;14.10;99.90;;;;;;4197696;28;20251;-71
2022/08/26 04:26:12;;;;;;;450.23;405.33;;;14.10;99.90;;;;;;4198165;28;20192;-71
2022/08/26 04:28:13;;;;;;;275.50;254.63;;;14.10;99.90;;;;;;4198051;28;20198;-71
2022/08/26 04:30:14;;;;;;;361.17;340.80;;;14.20;99.80;;;;;;4197375;28;20332;-71
2022/08/26 04:32:15;;;;;;;654.73;359.23;;;14.20;99.80;;;;;;4196536;28;20213;-71
2022/08/26 04:34:16;;;;;;;420.73;387.27;;;14.20;99.90;;;;;;4196698;28;20231;-71
2022/08/26 04:36:17;;;;;;;297.47;250.57;;;14.20;99.90;;;;;;4197495;28;20920;-71
2022/08/26 04:38:18;;;;;;;670.63;366.73;;;14.20;99.90;;;;;;4196899;28;20233;-71
2022/08/26 04:40:19;;;;;;;252.80;235.70;;;14.20;99.70;;;;;;4197096;28;20187;-70
2022/08/26 04:42:19;;;;;;;410.63;378.60;;;14.20;99.90;;;;;;4197063;28;20180;-71
2022/08/26 04:44:21;;;;;;;462.50;421.67;;;14.20;99.70;;;;;;4196248;28;20302;-71
2022/08/26 04:46:24;;;;;;;674.43;305.67;;;14.20;99.70;;;;;;4196600;28;20234;-71
2022/08/26 04:48:26;;;;;;;420.60;312.27;;;14.20;99.80;;;;;;4196716;28;20613;-71
2022/08/26 04:50:26;;;;;;;950.00;503.93;;;14.30;99.90;;;;;;4196927;28;20187;-70
2022/08/26 04:52:27;;;;;;;383.20;347.67;;;14.20;99.50;;;;;;4196759;28;20255;-70
2022/08/26 04:54:27;;;;;;;560.03;356.70;;;14.30;99.50;;;;;;4196535;28;20207;-70
2022/08/26 04:56:32;;;;;;;577.43;412.10;;;14.30;99.60;;;;;;4187412;28;20239;-71
2022/08/26 04:58:33;;;;;;;746.47;480.60;;;14.40;99.70;;;;;;4188593;28;20665;-71
2022/08/26 05:00:34;;;;;;;173.87;160.67;;;14.50;99.00;;;;;;4196855;28;20209;-71
2022/08/26 05:02:35;;;;;;;518.03;452.87;;;14.60;99.20;;;;;;4197018;28;20186;-71
2022/08/26 05:04:35;;;;;;;323.10;293.97;;;14.80;98.30;;;;;;4178791;28;20279;-71
2022/08/26 05:06:37;;;;;;;511.50;316.50;;;14.80;97.90;;;;;;4196893;28;20175;-71
2022/08/26 05:08:37;;;;;;;486.67;322.27;;;14.80;97.70;;;;;;4178580;28;20275;-71
2022/08/26 05:10:43;;;;;;;306.63;276.27;;;14.90;97.70;;;;;;4178952;28;20218;-70
2022/08/26 05:12:43;;;;;;;346.53;317.87;;;15.10;97.50;;;;;;4178360;28;20220;-71
2022/08/26 05:14:45;;;;;;;354.00;322.40;;;15.10;97.10;;;;;;4196193;28;20256;-70
2022/08/26 05:16:45;;;;;;;315.90;293.00;;;15.10;97.00;;;;;;4197218;28;20180;-70
2022/08/26 05:18:46;;;;;;;270.97;245.37;;;15.00;97.00;;;;;;4196691;28;20249;-70
2022/08/26 05:20:52;;;;;;;400.57;336.33;;;14.90;97.50;;;;;;4196476;28;20214;-71
2022/08/26 05:22:53;;;;;;;284.40;254.83;;;15.10;97.20;;;;;;4195475;28;20932;-71
2022/08/26 05:24:53;;;;;;;373.67;331.77;;;15.10;97.50;;;;;;4196363;28;20210;-71
2022/08/26 05:26:54;;;;;;;634.37;509.10;;;15.20;97.60;;;;;;4196663;28;20226;-71
2022/08/26 05:28:55;;;;;;;845.07;568.73;;;15.20;97.30;;;;;;4196572;28;20206;-71
2022/08/26 05:30:56;;;;;;;317.30;299.47;;;15.20;97.30;;;;;;4196485;28;20195;-71
2022/08/26 05:32:56;;;;;;;559.47;482.03;;;15.20;97.20;;;;;;4195773;28;20818;-71
2022/08/26 05:34:57;;;;;;;222.87;122.67;;;15.40;96.80;;;;;;4196473;28;20256;-71
2022/08/26 05:36:58;;;;;;;386.97;357.57;;;15.50;96.40;;;;;;4196347;28;20245;-71
2022/08/26 05:38:59;;;;;;;678.83;399.97;;;15.70;95.60;;;;;;4196480;28;20207;-72
2022/08/26 05:41:00;;;;;;;292.20;226.17;;;15.90;95.20;;;;;;4196277;28;20264;-71
2022/08/26 05:43:02;;;;;;;295.67;271.13;;;16.00;94.20;;;;;;4195588;28;20593;-71
2022/08/26 05:45:03;;;;;;;264.00;246.90;;;16.20;94.00;;;;;;4195993;28;20266;-71
2022/08/26 05:47:03;;;;;;;396.97;301.47;;;16.40;93.50;;;;;;4196177;28;20644;-71
2022/08/26 05:49:05;;;;;;;463.97;323.37;;;16.40;93.40;;;;;;4195896;28;20191;-71
2022/08/26 05:51:08;;;;;;;658.80;321.03;;;16.50;93.60;;;;;;4178125;28;20703;-71
2022/08/26 05:53:10;;;;;;;820.63;530.90;;;16.70;92.30;;;;;;4195307;28;20199;-71
2022/08/26 05:55:11;;;;;;;953.53;427.90;;;16.60;92.50;;;;;;4196092;28;20204;-71
2022/08/26 05:57:12;;;;;;;401.07;365.87;;;16.80;91.90;;;;;;4194743;28;20270;-71
2022/08/26 05:59:14;;;;;;;369.73;342.17;;;16.80;91.50;;;;;;4196167;28;20640;-71
2022/08/26 06:01:19;;;;;;;271.13;247.40;;;17.00;91.10;;;;;;4178286;28;20180;-71
2022/08/26 06:03:19;;;;;;;643.90;588.17;;;17.00;91.30;;;;;;4177132;28;20188;-71
2022/08/26 06:05:20;;;;;;;732.60;653.23;;;16.90;92.10;;;;;;4196211;28;20212;-71
2022/08/26 06:08:09;;;;;;;646.33;585.17;;;16.90;92.30;;;;;;4195864;28;20266;-71
2022/08/26 06:09:42;;;;;;;560.83;523.10;;;16.80;92.70;;;;;;4195710;28;20676;-71
2022/08/26 06:11:43;;;;;;;1136.40;465.77;;;16.90;92.50;;;;;;4178319;28;20184;-71
2022/08/26 06:13:44;;;;;;;1015.93;498.67;;;17.00;92.40;;;;;;4177740;28;20211;-69
2022/08/26 06:15:48;;;;;;;636.27;440.87;;;17.20;91.80;;;;;;4196026;28;20192;-70
2022/08/26 06:17:49;;;;;;;510.03;472.97;;;17.30;91.40;;;;;;4178203;28;20692;-70
2022/08/26 06:19:49;;;;;;;449.70;402.03;;;17.40;91.30;;;;;;4178523;28;20226;-70
2022/08/26 06:21:51;;;;;;;391.80;359.97;;;17.50;90.60;;;;;;4178466;28;20180;-70
2022/08/26 06:26:15;;;;;;;515.20;468.73;;;17.80;89.20;;;;;;4181061;28;20175;-70
2022/08/26 06:28:16;;;;;;;593.60;538.17;;;17.90;89.80;;;;;;4177841;28;20188;-70
2022/08/26 06:30:17;;;;;;;1544.90;673.40;;;17.90;90.00;;;;;;4195747;28;20679;-71
2022/08/26 06:32:17;;;;;;;768.27;690.40;;;17.90;90.30;;;;;;4177787;28;20180;-70
2022/08/26 06:34:19;;;;;;;1320.93;725.40;;;17.90;90.30;;;;;;4195007;28;20290;-71
2022/08/26 06:36:29;;;;;;;1999.90;905.73;;;18.00;90.90;;;;;;4195558;28;20176;-70
2022/08/26 06:38:30;;;;;;;1999.90;773.17;;;18.10;90.20;;;;;;4195619;28;20217;-71
2022/08/26 06:40:31;;;;;;;1502.50;899.50;;;18.10;90.50;;;;;;4195513;28;20179;-71
2022/08/26 06:42:32;;;;;;;1818.90;922.30;;;18.10;91.20;;;;;;4177922;28;20668;-71
2022/08/26 06:44:33;;;;;;;1999.90;999.90;;;18.10;91.00;;;;;;4194998;28;20229;-71
2022/08/26 06:46:34;;;;;;;1177.20;827.47;;;18.10;91.10;;;;;;4195566;28;20267;-71
2022/08/26 06:48:35;;;;;;;1392.50;877.63;;;18.10;90.50;;;;;;4195383;28;20175;-69
2022/08/26 06:50:36;;;;;;;1183.33;804.17;;;18.20;91.10;;;;;;4195169;28;20176;-70
2022/08/26 06:52:36;;;;;;;893.40;730.23;;;18.20;90.70;;;;;;4195260;28;20186;-70
2022/08/26 06:54:41;;;;;;;1617.00;909.70;;;18.20;90.60;;;;;;4194995;28;20274;-70
2022/08/26 06:56:43;;;;;;;1534.03;886.23;;;18.20;90.40;;;;;;4180883;28;20701;-71
2022/08/26 06:58:44;;;;;;;1999.90;950.43;;;18.30;91.10;;;;;;4198937;28;20180;-70
2022/08/26 07:00:45;;;;;;;1999.90;932.33;;;18.40;90.40;;;;;;4180902;28;20188;-71
2022/08/26 07:02:46;;;;;;;1999.90;948.80;;;18.50;90.20;;;;;;4198342;28;20251;-71
2022/08/26 07:04:46;;;;;;;900.33;768.10;;;18.60;90.30;;;;;;4180648;28;20207;-71
2022/08/26 07:06:49;;;;;;;1189.70;830.67;;;18.70;89.20;;;;;;4198676;28;20566;-71
2022/08/26 07:08:52;;;;;;;1455.70;882.50;;;19.00;88.30;;;;;;4198750;28;20175;-71
2022/08/26 07:10:53;;;;;;;1864.70;949.63;;;19.10;88.00;;;;;;4180758;28;20192;-71
2022/08/26 07:12:54;;;;;;;1996.10;982.67;;;19.30;87.70;;;;;;4179895;28;20246;-70
2022/08/26 07:14:54;;;;;;;1999.90;991.73;;;19.50;86.90;;;;;;4198752;28;20192;-70
2022/08/26 07:16:55;;;;;;;1999.90;996.30;;;19.60;86.10;;;;;;4181184;28;20237;-70
2022/08/26 07:18:56;;;;;;;1999.90;880.07;;;19.80;85.60;;;;;;4198263;28;20183;-70
2022/08/26 07:21:01;;;;;;;1898.23;940.43;;;19.80;83.50;;;;;;4180934;28;20187;-71
2022/08/26 07:23:01;;;;;;;1999.90;997.43;;;20.00;84.10;;;;;;4180188;28;20208;-70
2022/08/26 07:25:07;;;;;;;1999.90;874.07;;;20.10;83.50;;;;;;4180812;28;20208;-70
2022/08/26 07:27:13;;;;;;;1750.17;848.63;;;20.20;81.80;;;;;;4198448;28;20221;-71
2022/08/26 07:29:15;;;;;;;1965.63;660.17;;;20.30;82.00;;;;;;4198129;28;20171;-71
2022/08/26 07:31:16;;;;;;;1192.37;496.03;;;20.50;79.70;;;;;;4180715;28;20176;-71
2022/08/26 07:33:17;;;;;;;1999.33;639.63;;;20.80;75.70;;;;;;4179633;28;20208;-71
2022/08/26 07:35:18;;;;;;;1514.80;695.33;;;21.20;72.50;;;;;;4180190;28;20545;-71
2022/08/26 07:37:18;;;;;;;1423.93;452.73;;;21.40;72.10;;;;;;4198219;28;20180;-71
2022/08/26 07:39:19;;;;;;;1870.13;525.63;;;21.40;69.80;;;;;;4198153;28;20233;-71
2022/08/26 07:41:23;;;;;;;1999.90;999.90;;;21.80;67.60;;;;;;4180378;28;20180;-71
2022/08/26 07:43:24;;;;;;;1999.90;604.83;;;21.90;69.10;;;;;;4179614;28;20187;-71
2022/08/26 07:45:24;;;;;;;1527.37;652.20;;;21.90;67.30;;;;;;4197679;28;20301;-71
2022/08/26 07:47:25;;;;;;;1999.90;771.43;;;22.00;65.90;;;;;;4198002;28;20751;-69
2022/08/26 07:49:28;;;;;;;1292.07;541.40;;;21.90;65.50;;;;;;4180063;28;20208;-69
2022/08/26 07:51:29;;;;;;;1674.97;738.60;;;21.90;65.50;;;;;;4180169;28;20230;-69
2022/08/26 07:53:29;;;;;;;1999.90;951.57;;;22.00;65.10;;;;;;4179556;28;20215;-69
2022/08/26 07:55:30;;;;;;;983.23;557.97;;;22.20;65.80;;;;;;4197893;28;20683;-69
2022/08/26 07:57:32;;;;;;;973.23;661.07;;;22.30;65.40;;;;;;4180025;28;20211;-70
2022/08/26 07:59:33;;;;;;;1999.90;593.03;;;22.60;62.30;;;;;;4180122;28;20168;-69
2022/08/26 08:01:34;;;;;;;1701.97;450.47;;;23.00;61.40;;;;;;4180073;28;20180;-69
2022/08/26 08:03:35;;;;;;;1999.90;635.97;;;23.30;58.20;;;;;;4197183;28;20283;-69
2022/08/26 08:05:36;;;;;;;1878.67;743.37;;;23.40;55.80;;;;;;4163135;28;20235;-71
2022/08/26 08:07:37;;;;;;;1999.90;635.37;;;23.60;55.20;;;;;;4191597;28;20190;-73
2022/08/26 08:09:38;;;;;;;1824.67;695.50;;;23.60;53.60;;;;;;4181857;28;20183;-71
2022/08/26 08:11:40;;;;;;;1999.90;447.93;;;23.70;54.60;;;;;;4190390;28;20214;-71
2022/08/26 08:13:40;;;;;;;1358.93;457.53;;;24.00;52.90;;;;;;4196333;28;20230;-71
2022/08/26 08:15:41;;;;;;;1999.90;842.67;;;24.30;52.50;;;;;;4197347;28;20204;-71
2022/08/26 08:17:43;;;;;;;1999.90;750.30;;;24.50;51.30;;;;;;4196905;28;20808;-69
2022/08/26 08:19:43;;;;;;;1999.90;716.37;;;24.60;50.70;;;;;;4197074;28;20220;-70
2022/08/26 08:21:44;;;;;;;1999.90;583.10;;;24.70;49.70;;;;;;4182203;28;20183;-72
2022/08/26 08:23:45;;;;;;;1999.90;728.80;;;24.90;49.30;;;;;;4191685;28;20631;-70
2022/08/26 08:25:47;;;;;;;1999.90;630.07;;;25.00;50.40;;;;;;4197097;28;20207;-69
2022/08/26 08:27:48;;;;;;;1999.90;684.13;;;25.20;48.70;;;;;;4197135;28;20181;-73
2022/08/26 08:29:49;;;;;;;1999.90;614.17;;;25.30;48.80;;;;;;4166436;28;20745;-71
2022/08/26 08:31:51;;;;;;;1999.90;697.43;;;25.40;48.40;;;;;;4196881;28;20190;-71
2022/08/26 08:33:52;;;;;;;1806.23;541.97;;;25.40;49.60;;;;;;4182722;28;20504;-69
2022/08/26 08:35:54;;;;;;;1951.67;617.53;;;25.50;48.00;;;;;;4196640;28;20648;-68
2022/08/26 08:37:55;;;;;;;1898.60;645.83;;;25.70;46.70;;;;;;4196802;28;20182;-69
2022/08/26 08:39:56;;;;;;;1999.90;784.77;;;25.80;47.20;;;;;;4196607;28;20180;-73
2022/08/26 08:42:37;;;;;;;1999.90;650.53;;;26.00;46.80;;;;;;4196656;28;20193;-73
2022/08/26 08:44:44;;;;;;;1999.90;683.37;;;26.10;45.40;;;;;;4188491;28;20249;-69
2022/08/26 08:46:50;;;;;;;514.93;383.30;;;26.10;45.30;;;;;;4196576;28;20183;-67
2022/08/26 08:48:56;;;;;;;1999.90;751.00;;;26.20;45.00;;;;;;4196388;28;20675;-67
2022/08/26 08:51:29;;;;;;;1999.90;689.63;;;26.10;45.40;;;;;;4196488;28;20196;-67
2022/08/26 08:53:36;;;;;;;838.60;627.30;;;26.00;46.80;;;;;;4178921;28;20295;-68
2022/08/26 08:55:52;;;;;;;1999.90;619.73;;;25.90;46.90;;;;;;4192868;28;20202;-68
2022/08/26 08:58:08;;;;;;;1999.90;639.63;;;26.00;45.50;;;;;;4196326;28;20199;-69
2022/08/26 09:00:16;;;;;;;1514.53;536.37;;;26.00;43.80;;;;;;4188908;28;20792;-68
2022/08/26 09:02:56;;;;;;;1999.90;999.90;;;26.10;44.60;;;;;;4186223;28;20182;-69
2022/08/26 09:05:07;;;;;;;1740.03;473.23;;;25.90;46.90;;;;;;4152840;28;20232;-72
2022/08/26 09:07:17;;;;;;;1999.90;733.07;;;26.00;45.20;;;;;;4196432;28;20176;-70
2022/08/26 09:09:33;;;;;;;632.53;404.57;;;26.00;46.40;;;;;;4178822;28;20173;-72
2022/08/26 09:11:35;;;;;;;1999.90;830.00;;;26.20;45.00;;;;;;4180302;28;20278;-72
2022/08/26 09:13:37;;;;;;;1106.40;715.77;;;26.40;44.40;;;;;;4192015;28;20234;-73
2022/08/26 09:15:50;;;;;;;1999.90;535.63;;;26.50;45.10;;;;;;4180401;28;20246;-73
2022/08/26 09:18:20;;;;;;;1999.90;583.17;;;26.70;44.10;;;;;;4181763;28;20168;-72
2022/08/26 09:20:36;;;;;;;1999.90;999.90;;;26.50;43.50;;;;;;4186578;28;20176;-71
2022/08/26 09:22:38;;;;;;;1999.90;733.20;;;26.40;43.50;;;;;;4188517;28;20172;-72
2022/08/26 09:24:40;;;;;;;1999.90;710.50;;;26.30;44.80;;;;;;4195318;28;20269;-71
2022/08/26 09:26:46;;;;;;;1999.90;796.23;;;26.70;44.60;;;;;;4195808;28;20199;-71
2022/08/26 09:29:00;;;;;;;1999.90;827.17;;;26.90;43.80;;;;;;4182712;28;20203;-71
2022/08/26 09:31:29;;;;;;;1999.90;639.70;;;26.60;43.40;;;;;;4191845;28;20167;-72
2022/08/26 09:33:31;;;;;;;1456.43;654.60;;;26.70;44.60;;;;;;4179400;28;20212;-72
2022/08/26 09:35:38;;;;;;;1999.90;708.87;;;27.00;43.30;;;;;;4192938;28;20285;-73
2022/08/26 09:37:44;;;;;;;1999.90;617.93;;;27.30;43.50;;;;;;4180338;28;20172;-71
2022/08/26 09:39:45;;;;;;;1999.90;800.77;;;27.50;42.60;;;;;;4195827;28;20171;-71
2022/08/26 09:42:06;;;;;;;1999.90;567.47;;;27.30;43.50;;;;;;4181289;28;20172;-73
2022/08/26 09:44:10;;;;;;;1999.90;797.93;;;27.20;41.30;;;;;;4187601;28;20640;-73
2022/08/26 09:46:24;;;;;;;1999.90;607.30;;;27.50;41.90;;;;;;4184862;28;20183;-73
2022/08/26 09:48:36;;;;;;;1999.90;824.23;;;27.60;40.40;;;;;;4185856;28;20180;-74
2022/08/26 09:50:53;;;;;;;1954.53;773.33;;;27.50;40.20;;;;;;4188267;28;20266;-72
2022/08/26 09:53:19;;;;;;;1755.80;675.43;;;27.70;41.70;;;;;;4164357;28;20747;-72
2022/08/26 09:55:22;;;;;;;1999.90;557.80;;;28.20;39.70;;;;;;4193960;28;20219;-71
2022/08/26 09:57:31;;;;;;;1999.90;508.83;;;29.10;36.80;;;;;;4195463;28;20237;-72
2022/08/26 09:59:32;;;;;;;1999.90;773.73;;;29.30;34.50;;;;;;4192636;28;20774;-75
2022/08/26 10:01:37;;;;;;;1999.90;683.17;;;28.90;36.30;;;;;;4179030;28;20184;-73
2022/08/26 10:03:38;;;;;;;1999.90;884.47;;;28.70;36.50;;;;;;4191260;28;20176;-75
2022/08/26 10:05:53;;;;;;;1999.90;677.63;;;28.80;37.90;;;;;;4180305;28;20258;-72
2022/08/26 10:07:55;;;;;;;532.50;485.17;;;28.60;35.30;;;;;;4189498;28;20554;-74
2022/08/26 10:09:56;;;;;;;1999.90;633.43;;;28.40;35.90;;;;;;4182237;28;20211;-73
2022/08/26 10:12:03;;;;;;;1999.90;600.07;;;28.20;37.60;;;;;;4189141;28;20195;-74